Time;durP1;ratioP1;P1;durP2;ratioP2;P2;SDS_P1;SDS_P2;PMS_P1;PMS_P2;Temp;Humidity;BMP_temperature;BMP_pressure;BME280_temperature;BME280_humidity;BME280_pressure;Samples;Min_cycle;Max_cycle;Signal;HPM_P1;HPM_P2
2022/11/08 00:01:33;;;;;;;;;;;;;;;9.32;77.46;101014.59;5327915;32;34607;-76
2022/11/08 00:04:35;;;;;;;;;;;;;;;9.05;78.62;101014.34;5318679;32;47152;-70
2022/11/08 00:14:21;;;;;;;;;;;;;;;9.14;76.67;101010.63;5314920;32;35020;-76
2022/11/08 00:17:25;;;;;;;;;;;;;;;8.77;77.86;101013.22;5304545;32;35626;-71
2022/11/08 00:20:27;;;;;;;;;;;;;;;9.31;76.07;101013.72;5310428;32;35217;-75
2022/11/08 00:23:29;;;;;;;;;;;;;;;9.18;76.04;101012.28;5329912;32;34829;-76
2022/11/08 00:26:31;;;;;;;;;;;;;;;8.56;78.83;101017.16;5302430;32;35315;-77
2022/11/08 00:29:34;;;;;;;;;;;;;;;9.86;73.66;101011.50;5330707;32;34770;-72
2022/11/08 00:32:36;;;;;;;;;;;;;;;10.24;71.53;101013.09;5302406;32;44666;-76
2022/11/08 00:35:38;;;;;;;;;;;;;;;9.88;72.26;101017.56;5318929;32;35014;-71
2022/11/08 00:38:41;;;;;;;;;;;;;;;9.67;73.71;101025.09;5324114;32;35734;-76
2022/11/08 00:41:43;;;;;;;;;;;;;;;9.52;74.60;101017.56;5313252;32;34787;-70
2022/11/08 00:44:45;;;;;;;;;;;;;;;10.11;71.83;101016.94;5331144;32;35461;-72
2022/11/08 00:47:46;;;;;;;;;;;;;;;10.27;70.32;101011.25;5315570;32;34255;-75
2022/11/08 00:50:49;;;;;;;;;;;;;;;10.06;71.09;101008.34;5329250;32;34893;-70
2022/11/08 00:53:50;;;;;;;;;;;;;;;9.93;71.11;101005.19;5315286;32;35134;-76
2022/11/08 00:56:52;;;;;;;;;;;;;;;9.80;71.85;101006.41;5321552;32;34931;-77
2022/11/08 00:59:54;;;;;;;;;;;;;;;9.80;70.84;100995.91;5327893;32;34489;-71
2022/11/08 01:06:17;;;;;;;;;;;;;;;9.49;72.43;101002.78;5331447;32;35036;-75
2022/11/08 01:09:19;;;;;;;;;;;;;;;9.84;71.96;101002.78;5300850;32;34731;-71
2022/11/08 01:12:21;;;;;;;;;;;;;;;9.87;70.51;101005.34;5327257;32;33660;-77
2022/11/08 01:15:22;;;;;;;;;;;;;;;9.86;69.45;101011.50;5311499;32;37203;-71
2022/11/08 01:18:24;;;;;;;;;;;;;;;9.65;71.07;101020.75;5289217;32;37396;-76
2022/11/08 01:21:26;;;;;;;;;;;;;;;9.06;73.51;101016.06;5330898;32;34255;-71
2022/11/08 01:24:28;;;;;;;;;;;;;;;9.01;73.70;101002.19;5315253;32;35458;-76
2022/11/08 01:27:30;;;;;;;;;;;;;;;8.74;74.93;101015.91;5331551;32;34805;-70
2022/11/08 01:30:36;;;;;;;;;;;;;;;8.65;74.95;101003.88;5314297;32;34938;-71
2022/11/08 01:33:40;;;;;;;;;;;;;;;9.14;73.66;101000.13;5315279;32;44937;-72
2022/11/08 01:36:47;;;;;;;;;;;;;;;9.37;71.00;101002.22;5309324;32;35267;-71
2022/11/08 01:39:49;;;;;;;;;;;;;;;9.17;71.29;101000.94;5311389;32;35381;-77
2022/11/08 01:42:51;;;;;;;;;;;;;;;8.60;75.52;101003.09;5335103;32;34753;-75
2022/11/08 01:46:08;;;;;;;;;;;;;;;8.72;75.45;101001.97;5315104;32;35317;-71
2022/11/08 01:49:13;;;;;;;;;;;;;;;9.08;73.41;101000.28;5329219;32;45406;-76
2022/11/08 01:52:34;;;;;;;;;;;;;;;8.87;74.19;101007.72;5316309;32;34314;-76
2022/11/08 01:55:36;;;;;;;;;;;;;;;8.43;76.06;101000.81;5300626;32;44684;-70
2022/11/08 01:58:38;;;;;;;;;;;;;;;8.48;75.19;100998.97;5330492;32;35003;-76
2022/11/08 02:01:40;;;;;;;;;;;;;;;8.50;74.79;100999.81;5314939;32;35469;-71
2022/11/08 02:04:42;;;;;;;;;;;;;;;8.54;75.29;100995.38;5315454;32;34596;-71
2022/11/08 02:07:44;;;;;;;;;;;;;;;9.13;72.90;100996.66;5316030;32;35578;-71
2022/11/08 02:10:47;;;;;;;;;;;;;;;8.43;75.05;100990.34;5323313;32;34692;-76
2022/11/08 02:13:49;;;;;;;;;;;;;;;8.54;75.28;100990.97;5320936;32;35268;-72
2022/11/08 02:16:50;;;;;;;;;;;;;;;7.75;78.31;100997.75;5298170;32;34870;-75
2022/11/08 02:19:53;;;;;;;;;;;;;;;8.67;74.74;100987.22;5328847;32;35722;-71
2022/11/08 02:22:56;;;;;;;;;;;;;;;8.34;74.66;100993.13;5301515;32;34280;-71
2022/11/08 02:25:58;;;;;;;;;;;;;;;7.84;79.07;100993.19;5316432;32;34335;-76
2022/11/08 02:29:19;;;;;;;;;;;;;;;8.20;77.23;100998.66;5314789;32;35031;-71
2022/11/08 02:32:21;;;;;;;;;;;;;;;9.11;72.24;100994.97;5316512;32;34221;-76
2022/11/08 02:35:23;;;;;;;;;;;;;;;8.18;75.55;100989.06;5328731;32;35120;-71
2022/11/08 02:38:24;;;;;;;;;;;;;;;8.30;75.21;101000.16;5297509;32;35556;-76
2022/11/08 02:41:26;;;;;;;;;;;;;;;8.48;75.09;100993.72;5326586;32;34982;-77
2022/11/08 02:44:28;;;;;;;;;;;;;;;8.18;75.33;100996.94;5315086;32;34759;-76
2022/11/08 02:47:30;;;;;;;;;;;;;;;8.41;74.68;100994.75;5330044;32;35618;-72
2022/11/08 02:50:32;;;;;;;;;;;;;;;8.69;73.83;100995.03;5314855;32;34240;-72
2022/11/08 02:53:34;;;;;;;;;;;;;;;8.87;73.67;100996.37;5314389;32;34835;-71
2022/11/08 02:56:36;;;;;;;;;;;;;;;9.10;72.85;100996.75;5331867;32;44587;-71
2022/11/08 02:59:37;;;;;;;;;;;;;;;9.35;71.01;100993.53;5313673;32;34775;-76
2022/11/08 03:02:39;;;;;;;;;;;;;;;8.81;73.05;100996.53;5329253;32;34772;-71
2022/11/08 03:05:42;;;;;;;;;;;;;;;8.77;73.22;100990.50;5318153;32;35463;-76
2022/11/08 03:08:44;;;;;;;;;;;;;;;8.25;76.78;101003.81;5327426;32;34753;-71
2022/11/08 03:11:46;;;;;;;;;;;;;;;8.17;76.39;100998.69;5315342;32;35216;-77
2022/11/08 03:14:47;;;;;;;;;;;;;;;9.08;73.08;101001.16;5314846;32;34917;-70
2022/11/08 03:17:49;;;;;;;;;;;;;;;9.15;72.99;101005.38;5309184;32;35156;-70
2022/11/08 03:20:51;;;;;;;;;;;;;;;9.28;72.68;101002.47;5314997;32;34513;-71
2022/11/08 03:23:53;;;;;;;;;;;;;;;8.99;73.79;101003.97;5330457;32;35745;-76
2022/11/08 03:26:55;;;;;;;;;;;;;;;9.10;72.67;100998.50;5317227;32;34811;-75
2022/11/08 03:29:57;;;;;;;;;;;;;;;8.62;74.31;101007.41;5330361;32;34845;-76
2022/11/08 03:32:58;;;;;;;;;;;;;;;9.08;74.04;101011.66;5315819;32;34885;-70
2022/11/08 03:36:00;;;;;;;;;;;;;;;8.34;77.32;101008.84;5314943;32;35071;-75
2022/11/08 03:39:02;;;;;;;;;;;;;;;8.55;75.96;101007.56;5328321;32;34464;-70
2022/11/08 03:42:04;;;;;;;;;;;;;;;7.86;78.05;101014.13;5315062;32;35848;-77
2022/11/08 03:45:06;;;;;;;;;;;;;;;8.51;77.34;101006.78;5348348;32;47890;-71
2022/11/08 03:48:08;;;;;;;;;;;;;;;7.92;80.03;101003.56;5311147;32;34262;-70
2022/11/08 03:51:10;;;;;;;;;;;;;;;7.95;78.34;101013.94;5324600;32;35383;-70
2022/11/08 03:54:11;;;;;;;;;;;;;;;8.52;77.34;101005.03;5315869;32;35001;-75
2022/11/08 03:57:13;;;;;;;;;;;;;;;9.11;73.51;101008.09;5309980;32;35332;-70
2022/11/08 04:00:16;;;;;;;;;;;;;;;9.45;70.79;101005.50;5328350;32;34800;-70
2022/11/08 04:03:18;;;;;;;;;;;;;;;9.12;72.55;101008.03;5310000;32;35239;-70
2022/11/08 04:06:20;;;;;;;;;;;;;;;8.62;74.80;101014.41;5310721;32;35351;-70
2022/11/08 04:09:21;;;;;;;;;;;;;;;9.20;71.48;101005.22;5315750;32;34791;-76
2022/11/08 04:15:45;;;;;;;;;;;;;;;9.47;69.28;100999.34;5296762;32;45354;-70
2022/11/08 04:22:18;;;;;;;;;;;;;;;9.17;71.48;100998.31;5292242;32;35275;-70
2022/11/08 04:25:19;;;;;;;;;;;;;;;8.70;73.54;100999.41;5316204;32;34752;-76
2022/11/08 04:28:25;;;;;;;;;;;;;;;8.77;74.25;101003.59;5329464;32;35098;-76
2022/11/08 04:31:27;;;;;;;;;;;;;;;8.41;76.41;100994.75;5306162;32;35456;-70
2022/11/08 04:34:29;;;;;;;;;;;;;;;8.49;77.57;100995.44;5305943;32;36751;-70
2022/11/08 04:37:30;;;;;;;;;;;;;;;9.09;74.42;100992.41;5315135;32;35411;-76
2022/11/08 04:40:32;;;;;;;;;;;;;;;9.52;72.38;100998.34;5313323;32;35605;-76
2022/11/08 04:43:34;;;;;;;;;;;;;;;8.89;75.37;100992.84;5329612;32;35898;-76
2022/11/08 04:46:36;;;;;;;;;;;;;;;9.35;73.55;100983.03;5326839;32;47889;-70
2022/11/08 04:49:38;;;;;;;;;;;;;;;8.76;76.53;100988.78;5322149;32;34975;-76
2022/11/08 04:52:40;;;;;;;;;;;;;;;8.68;76.75;100991.53;5299914;32;34942;-70
2022/11/08 04:55:42;;;;;;;;;;;;;;;8.13;78.89;100997.91;5315472;32;34827;-70
2022/11/08 04:58:44;;;;;;;;;;;;;;;8.49;80.04;100992.81;5330768;32;35503;-75
2022/11/08 05:01:46;;;;;;;;;;;;;;;9.37;75.46;100982.09;5305551;32;35511;-76
2022/11/08 05:04:48;;;;;;;;;;;;;;;9.15;75.92;100981.75;5329122;32;34956;-71
2022/11/08 05:07:50;;;;;;;;;;;;;;;9.33;75.32;100990.06;5316328;32;34496;-71
2022/11/08 05:10:52;;;;;;;;;;;;;;;8.61;78.04;100991.72;5327448;32;35410;-71
2022/11/08 05:13:54;;;;;;;;;;;;;;;8.75;79.48;100983.56;5318894;32;35820;-75
2022/11/08 05:16:56;;;;;;;;;;;;;;;8.95;78.77;100997.06;5292797;32;35267;-71
2022/11/08 05:23:24;;;;;;;;;;;;;;;8.59;79.48;100981.28;5316106;32;34342;-76
2022/11/08 05:26:26;;;;;;;;;;;;;;;8.47;80.53;100986.78;5330479;32;35419;-76
2022/11/08 05:29:28;;;;;;;;;;;;;;;8.46;81.10;100992.06;5315468;32;34904;-77
2022/11/08 05:32:30;;;;;;;;;;;;;;;8.86;79.73;101003.41;5318040;32;36098;-76
2022/11/08 05:35:32;;;;;;;;;;;;;;;9.36;78.42;101006.59;5329095;32;36586;-70
2022/11/08 05:38:35;;;;;;;;;;;;;;;9.08;78.57;101003.78;5294631;32;35363;-76
2022/11/08 05:41:36;;;;;;;;;;;;;;;9.19;78.70;101009.63;5314630;32;45118;-71
2022/11/08 05:44:38;;;;;;;;;;;;;;;8.70;78.35;101009.87;5313874;32;35429;-70
2022/11/08 05:47:44;;;;;;;;;;;;;;;9.09;79.75;101009.87;5329723;32;36091;-77
2022/11/08 05:50:46;;;;;;;;;;;;;;;8.87;81.69;101017.34;5302727;32;35001;-71
2022/11/08 05:53:48;;;;;;;;;;;;;;;9.68;77.00;101013.69;5300841;32;35367;-71
2022/11/08 05:56:50;;;;;;;;;;;;;;;10.09;73.36;101016.13;5332618;32;34472;-77
2022/11/08 05:59:52;;;;;;;;;;;;;;;9.17;76.96;101021.91;5312649;32;34743;-71
2022/11/08 06:02:54;;;;;;;;;;;;;;;9.06;78.44;101026.53;5341804;32;35135;-69
2022/11/08 06:06:00;;;;;;;;;;;;;;;9.07;75.79;101020.37;5315289;32;34572;-75
2022/11/08 06:09:02;;;;;;;;;;;;;;;9.41;77.60;101022.25;5315292;32;34915;-76
2022/11/08 06:12:04;;;;;;;;;;;;;;;9.94;73.14;101009.53;5292602;32;35519;-78
2022/11/08 06:15:06;;;;;;;;;;;;;;;9.94;72.42;101014.78;5304122;32;46673;-76
2022/11/08 06:18:08;;;;;;;;;;;;;;;9.59;74.43;101024.41;5311626;32;35445;-71
2022/11/08 06:21:11;;;;;;;;;;;;;;;9.48;74.80;101015.94;5312135;32;35592;-74
2022/11/08 06:24:14;;;;;;;;;;;;;;;9.68;74.33;101024.19;5312595;32;35868;-71
2022/11/08 06:27:16;;;;;;;;;;;;;;;9.35;75.08;101033.75;5313659;32;34392;-75
2022/11/08 06:30:18;;;;;;;;;;;;;;;8.80;77.42;101037.59;5325702;32;34387;-82
2022/11/08 06:33:20;;;;;;;;;;;;;;;9.46;76.48;101042.19;5314652;32;33882;-80
2022/11/08 06:36:22;;;;;;;;;;;;;;;9.94;73.63;101031.38;5314339;32;35527;-68
2022/11/08 06:39:24;;;;;;;;;;;;;;;10.00;73.28;101031.22;5307943;32;34373;-69
2022/11/08 06:42:26;;;;;;;;;;;;;;;9.65;74.29;101045.25;5304043;32;35583;-65
2022/11/08 06:45:28;;;;;;;;;;;;;;;9.09;75.60;101044.84;5321952;32;34428;-87
2022/11/08 06:48:30;;;;;;;;;;;;;;;9.78;75.80;101044.03;5303398;32;35216;-69
2022/11/08 06:51:36;;;;;;;;;;;;;;;9.94;74.28;101038.41;5299026;32;45024;-71
2022/11/08 06:54:41;;;;;;;;;;;;;;;10.23;72.25;101043.75;5310003;32;35042;-70
2022/11/08 06:57:43;;;;;;;;;;;;;;;9.50;76.25;101051.72;5304154;32;34868;-72
2022/11/08 07:04:04;;;;;;;;;;;;;;;9.71;73.09;101060.84;5316406;32;33734;-89
2022/11/08 07:07:33;;;;;;;;;;;;;;;9.30;74.56;101060.97;5333114;32;35793;-88
2022/11/08 07:10:45;;;;;;;;;;;;;;;10.04;72.54;101058.25;5341939;32;43955;-95
2022/11/08 07:13:52;;;;;;;;;;;;;;;9.97;73.23;101067.19;5347130;32;34522;-89
2022/11/08 07:17:26;;;;;;;;;;;;;;;10.41;70.83;101057.31;5325541;32;43310;-90
2022/11/08 07:20:39;;;;;;;;;;;;;;;9.25;78.40;101066.31;5362555;32;34620;-94
2022/11/08 07:23:47;;;;;;;;;;;;;;;10.21;73.22;101053.41;5335234;32;44373;-90
2022/11/08 07:27:00;;;;;;;;;;;;;;;9.45;76.08;101055.38;5477413;27;35281;-70
2022/11/08 07:30:02;;;;;;;;;;;;;;;9.56;75.48;101063.00;5344527;32;36011;-74
2022/11/08 07:33:04;;;;;;;;;;;;;;;10.22;72.78;101055.13;5341137;32;34377;-72
2022/11/08 07:36:07;;;;;;;;;;;;;;;9.35;76.00;101059.12;5359353;32;45834;-66
2022/11/08 07:39:09;;;;;;;;;;;;;;;10.03;73.43;101061.78;5344550;32;34107;-64
2022/11/08 07:42:11;;;;;;;;;;;;;;;10.52;71.85;101060.50;5361985;32;35381;-68
2022/11/08 07:45:13;;;;;;;;;;;;;;;10.30;71.80;101061.09;5344690;32;34288;-66
2022/11/08 07:48:15;;;;;;;;;;;;;;;10.07;72.04;101070.47;5335868;32;35377;-66
2022/11/08 07:51:17;;;;;;;;;;;;;;;10.48;71.83;101064.97;5356088;32;34342;-73
2022/11/08 07:54:19;;;;;;;;;;;;;;;9.49;73.05;101068.38;5346717;32;34280;-68
2022/11/08 07:57:21;;;;;;;;;;;;;;;10.52;72.00;101069.25;5363616;32;34407;-65
2022/11/08 08:00:23;;;;;;;;;;;;;;;10.51;71.29;101059.66;5345331;32;34169;-71
2022/11/08 08:03:28;;;;;;;;;;;;;;;10.52;70.73;101061.38;5338674;32;34992;-72
2022/11/08 08:06:30;;;;;;;;;;;;;;;9.08;76.44;101071.06;5342984;32;34165;-72
2022/11/08 08:09:35;;;;;;;;;;;;;;;10.20;73.36;101062.22;5328271;32;34346;-70
2022/11/08 08:12:37;;;;;;;;;;;;;;;10.54;71.39;101061.31;5345438;32;44471;-71
2022/11/08 08:15:39;;;;;;;;;;;;;;;10.37;71.67;101067.06;5346095;32;34288;-73
2022/11/08 08:18:41;;;;;;;;;;;;;;;10.50;70.50;101072.84;5353788;32;35480;-70
2022/11/08 08:21:43;;;;;;;;;;;;;;;10.56;71.09;101075.25;5351747;32;34281;-68
2022/11/08 08:24:49;;;;;;;;;;;;;;;9.98;71.77;101079.41;5357905;32;34667;-65
2022/11/08 08:27:52;;;;;;;;;;;;;;;9.72;72.72;101073.09;5324744;32;34512;-70
2022/11/08 08:30:54;;;;;;;;;;;;;;;10.19;73.96;101073.63;5350401;32;33353;-64
2022/11/08 08:33:57;;;;;;;;;;;;;;;10.70;71.05;101067.00;5358849;32;34179;-71
2022/11/08 08:36:59;;;;;;;;;;;;;;;11.29;67.90;101057.31;5334309;32;35308;-68
2022/11/08 08:40:01;;;;;;;;;;;;;;;10.90;68.96;101069.06;5362930;32;36491;-68
2022/11/08 08:43:04;;;;;;;;;;;;;;;10.84;68.88;101073.59;5340006;32;36058;-70
2022/11/08 08:46:06;;;;;;;;;;;;;;;10.48;69.87;101069.38;5321328;32;35561;-67
2022/11/08 08:49:08;;;;;;;;;;;;;;;10.30;72.59;101070.72;5335012;32;44563;-69
2022/11/08 08:52:10;;;;;;;;;;;;;;;9.67;75.35;101088.09;5346186;32;34296;-73
2022/11/08 08:55:12;;;;;;;;;;;;;;;9.98;74.39;101079.41;5357807;32;34278;-72
2022/11/08 08:58:14;;;;;;;;;;;;;;;10.16;72.71;101091.22;5341486;32;35870;-70
2022/11/08 09:01:16;;;;;;;;;;;;;;;10.50;72.48;101083.34;5359145;32;34768;-72
2022/11/08 09:04:39;;;;;;;;;;;;;;;10.26;72.05;101090.13;5345604;32;44905;-72
2022/11/08 09:07:41;;;;;;;;;;;;;;;9.67;74.44;101105.59;5338854;32;34322;-75
2022/11/08 09:10:44;;;;;;;;;;;;;;;9.98;74.79;101106.56;5345516;32;36014;-71
2022/11/08 09:13:46;;;;;;;;;;;;;;;11.39;68.54;101095.56;5321525;32;853138;-73
2022/11/08 09:16:48;;;;;;;;;;;;;;;11.08;70.73;101094.81;5341631;32;34269;-75
2022/11/08 09:19:51;;;;;;;;;;;;;;;10.67;70.52;101101.25;5327397;32;34321;-72
2022/11/08 09:23:01;;;;;;;;;;;;;;;10.41;71.87;101104.59;5358545;32;35811;-75
2022/11/08 09:26:04;;;;;;;;;;;;;;;10.75;70.23;101109.78;5334289;32;35659;-74
2022/11/08 09:29:08;;;;;;;;;;;;;;;11.12;70.65;101105.19;5332582;32;44651;-70
2022/11/08 09:32:11;;;;;;;;;;;;;;;10.93;70.46;101113.66;5364011;32;34144;-85
2022/11/08 09:35:13;;;;;;;;;;;;;;;11.17;68.70;101109.47;5312637;32;34418;-80
2022/11/08 09:38:16;;;;;;;;;;;;;;;10.43;72.48;101113.31;5335789;32;33626;-75
2022/11/08 09:41:31;;;;;;;;;;;;;;;9.28;77.01;101115.25;5348755;32;34231;-81
2022/11/08 09:44:51;;;;;;;;;;;;;;;9.88;75.12;101112.09;5337678;32;34251;-73
2022/11/08 09:47:55;;;;;;;;;;;;;;;10.30;73.55;101097.00;5341701;32;36113;-70
2022/11/08 09:50:57;;;;;;;;;;;;;;;10.72;71.58;101099.38;5335659;32;34931;-76
2022/11/08 09:53:59;;;;;;;;;;;;;;;10.62;72.89;101097.87;5331970;32;34337;-78
2022/11/08 09:57:04;;;;;;;;;;;;;;;10.30;72.72;101107.50;5348483;32;34177;-75
2022/11/08 10:00:06;;;;;;;;;;;;;;;10.46;72.55;101084.31;5345995;32;36677;-74
2022/11/08 10:03:13;;;;;;;;;;;;;;;11.30;69.77;101093.25;5349436;32;45950;-73
2022/11/08 10:06:15;;;;;;;;;;;;;;;11.30;69.34;101095.88;5346275;32;34654;-77
2022/11/08 10:09:38;;;;;;;;;;;;;;;11.19;70.10;101094.47;5348328;32;34144;-77
2022/11/08 10:12:43;;;;;;;;;;;;;;;11.57;68.55;101091.50;5345727;32;44538;-79
2022/11/08 10:16:03;;;;;;;;;;;;;;;11.68;69.35;101090.31;5349772;32;34261;-75
2022/11/08 10:19:17;;;;;;;;;;;;;;;13.08;62.99;101082.72;5333304;32;35461;-76
2022/11/08 10:22:39;;;;;;;;;;;;;;;12.28;64.09;101074.22;5337207;32;33367;-79
2022/11/08 10:25:44;;;;;;;;;;;;;;;12.81;63.30;101074.06;5349465;32;44852;-77
2022/11/08 10:28:49;;;;;;;;;;;;;;;13.15;61.55;101067.53;5335698;32;35402;-72
2022/11/08 10:31:52;;;;;;;;;;;;;;;13.14;61.62;101077.22;5349745;32;32784;-76
2022/11/08 10:34:57;;;;;;;;;;;;;;;13.09;62.66;101062.47;5321338;32;34467;-79
2022/11/08 10:37:59;;;;;;;;;;;;;;;13.12;61.83;101062.34;5334154;32;34473;-83
2022/11/08 10:41:20;;;;;;;;;;;;;;;13.01;62.32;101058.34;5360499;32;35449;-75
2022/11/08 10:44:23;;;;;;;;;;;;;;;12.93;63.91;101052.50;5349050;32;34452;-72
2022/11/08 10:47:26;;;;;;;;;;;;;;;11.93;66.15;101055.25;5342806;32;35575;-71
2022/11/08 10:50:34;;;;;;;;;;;;;;;11.45;68.76;101060.31;5335743;32;35242;-76
2022/11/08 10:53:36;;;;;;;;;;;;;;;13.44;62.84;101050.53;5350730;32;43609;-77
2022/11/08 10:56:54;;;;;;;;;;;;;;;12.85;62.75;101051.94;5342172;32;35485;-75
2022/11/08 11:00:15;;;;;;;;;;;;;;;13.23;62.97;101046.97;5351214;32;35403;-76
2022/11/08 11:03:27;;;;;;;;;;;;;;;13.10;63.67;101043.94;5353172;32;34304;-80
2022/11/08 11:06:31;;;;;;;;;;;;;;;12.19;65.98;101051.72;5336730;32;34382;-76
2022/11/08 11:09:36;;;;;;;;;;;;;;;12.42;66.93;101039.47;5348209;32;34167;-74
2022/11/08 11:12:38;;;;;;;;;;;;;;;11.63;70.13;101037.78;5354006;32;44780;-78
2022/11/08 11:15:51;;;;;;;;;;;;;;;12.43;67.25;101036.81;5344969;32;34153;-73
2022/11/08 11:18:53;;;;;;;;;;;;;;;12.15;68.00;101038.69;5326457;32;36326;-78
2022/11/08 11:21:55;;;;;;;;;;;;;;;11.63;69.90;101035.16;5321410;32;34314;-73
2022/11/08 11:25:15;;;;;;;;;;;;;;;12.63;66.22;101028.16;5355821;32;36130;-77
2022/11/08 11:28:19;;;;;;;;;;;;;;;14.07;62.42;101020.56;5354949;32;33645;-71
2022/11/08 11:31:21;;;;;;;;;;;;;;;13.01;64.56;101026.69;5331246;32;35052;-82
2022/11/08 11:34:43;;;;;;;;;;;;;;;13.48;65.01;101029.25;5361650;32;34458;-78
2022/11/08 11:37:45;;;;;;;;;;;;;;;13.97;63.54;101018.38;5343745;32;45364;-79
2022/11/08 11:40:47;;;;;;;;;;;;;;;14.83;59.84;101008.34;5342308;32;32914;-82
2022/11/08 11:43:55;;;;;;;;;;;;;;;15.81;56.36;101005.38;5324791;32;35546;-83
2022/11/08 11:46:59;;;;;;;;;;;;;;;14.41;59.92;101008.50;5334816;32;35474;-69
2022/11/08 11:50:11;;;;;;;;;;;;;;;14.30;61.55;101008.12;5364827;32;35051;-68
2022/11/08 11:53:21;;;;;;;;;;;;;;;15.67;56.85;101006.94;5347589;32;44713;-69
2022/11/08 11:56:26;;;;;;;;;;;;;;;14.83;59.95;101003.06;5348192;32;34244;-66
2022/11/08 11:59:36;;;;;;;;;;;;;;;15.40;58.39;100997.69;5345658;32;34577;-67
2022/11/08 12:02:50;;;;;;;;;;;;;;;15.66;57.87;100991.97;5329493;32;46620;-66
2022/11/08 12:06:04;;;;;;;;;;;;;;;15.10;59.86;100990.28;5352953;32;34146;-69
2022/11/08 12:09:16;;;;;;;;;;;;;;;15.05;59.99;100984.34;5328927;32;36865;-73
2022/11/08 12:12:24;;;;;;;;;;;;;;;14.21;62.83;100987.38;5338455;32;34643;-70
2022/11/08 12:15:27;;;;;;;;;;;;;;;14.01;63.70;100972.41;5353057;32;34325;-68
2022/11/08 12:18:47;;;;;;;;;;;;;;;15.04;60.02;100966.75;5345750;32;34392;-67
2022/11/08 12:21:50;;;;;;;;;;;;;;;14.89;60.70;100968.38;5357734;32;34525;-64
2022/11/08 12:24:56;;;;;;;;;;;;;;;15.80;57.98;100953.31;5348446;32;34999;-66
2022/11/08 12:28:04;;;;;;;;;;;;;;;15.03;60.94;100961.56;5358960;32;34274;-67
2022/11/08 12:31:21;;;;;;;;;;;;;;;14.75;62.05;100957.59;5351912;32;46023;-67
2022/11/08 12:34:36;;;;;;;;;;;;;;;14.90;61.73;100948.91;5339809;32;34276;-68
2022/11/08 12:37:44;;;;;;;;;;;;;;;16.31;57.68;100941.75;5330424;32;44602;-69
2022/11/08 12:40:49;;;;;;;;;;;;;;;15.80;58.37;100938.25;5349709;32;35354;-65
2022/11/08 12:43:51;;;;;;;;;;;;;;;16.44;57.78;100936.62;5357803;32;34017;-71
2022/11/08 12:47:00;;;;;;;;;;;;;;;15.38;61.33;100935.97;5330334;32;37452;-70
2022/11/08 12:50:08;;;;;;;;;;;;;;;16.47;58.02;100933.78;5357348;32;35263;-67
2022/11/08 12:53:47;;;;;;;;;;;;;;;16.16;59.53;100939.88;5341772;32;44761;-69
2022/11/08 12:56:49;;;;;;;;;;;;;;;16.09;58.92;100926.09;5263677;32;36927;-70
2022/11/08 12:59:53;;;;;;;;;;;;;;;16.53;57.22;100930.78;5345690;32;34410;-71
2022/11/08 13:03:15;;;;;;;;;;;;;;;16.83;57.11;100922.09;5346749;32;34129;-69
2022/11/08 13:06:23;;;;;;;;;;;;;;;16.83;57.48;100933.59;5337744;32;34241;-71
2022/11/08 13:09:24;;;;;;;;;;;;;;;18.02;54.33;100925.69;5356400;32;35881;-69
2022/11/08 13:12:26;;;;;;;;;;;;;;;20.62;47.47;100921.66;5349092;32;34470;-69
2022/11/08 13:15:28;;;;;;;;;;;;;;;20.58;46.32;100918.34;5361015;32;36383;-70
2022/11/08 13:18:31;;;;;;;;;;;;;;;19.95;48.30;100911.25;5345889;32;35251;-70
2022/11/08 13:21:38;;;;;;;;;;;;;;;20.88;46.12;100909.06;5348575;32;44742;-71
2022/11/08 13:24:40;;;;;;;;;;;;;;;21.49;44.48;100899.13;5337008;32;34840;-70
2022/11/08 13:27:49;;;;;;;;;;;;;;;20.65;45.57;100906.25;5342075;32;35421;-72
2022/11/08 13:30:58;;;;;;;;;;;;;;;19.89;48.04;100895.69;5364538;32;34959;-70
2022/11/08 13:34:19;;;;;;;;;;;;;;;19.14;49.86;100903.47;5322978;32;35273;-69
2022/11/08 13:37:30;;;;;;;;;;;;;;;19.71;48.62;100901.34;5351144;32;34426;-68
2022/11/08 13:40:51;;;;;;;;;;;;;;;17.96;53.75;100904.78;5345887;32;34195;-69
2022/11/08 13:43:57;;;;;;;;;;;;;;;17.64;55.18;100907.56;5336587;32;34048;-69
2022/11/08 13:46:59;;;;;;;;;;;;;;;18.04;54.08;100905.19;5314910;32;34401;-65
2022/11/08 13:50:19;;;;;;;;;;;;;;;17.72;55.12;100910.69;5346928;32;35410;-71
2022/11/08 13:53:21;;;;;;;;;;;;;;;16.71;58.10;100916.53;5359370;32;34702;-72
2022/11/08 13:56:39;;;;;;;;;;;;;;;16.66;58.60;100917.69;5352828;32;34207;-73
2022/11/08 13:59:41;;;;;;;;;;;;;;;16.21;60.49;100922.78;5344841;32;44468;-76
2022/11/08 14:02:43;;;;;;;;;;;;;;;16.28;59.81;100922.47;5352209;32;34367;-76
2022/11/08 14:05:45;;;;;;;;;;;;;;;16.09;60.40;100918.16;5352141;32;34295;-73
2022/11/08 14:09:13;;;;;;;;;;;;;;;15.67;62.44;100915.97;5364258;32;34611;-84
2022/11/08 14:12:24;;;;;;;;;;;;;;;15.81;61.73;100925.88;5331694;32;47630;-89
2022/11/08 14:15:34;;;;;;;;;;;;;;;15.66;61.99;100925.72;5363755;32;34231;-83
2022/11/08 14:18:38;;;;;;;;;;;;;;;15.65;61.91;100921.37;5372702;32;37143;-88
2022/11/08 14:21:44;;;;;;;;;;;;;;;15.34;63.18;100929.97;5365629;32;45232;-87
2022/11/08 14:24:53;;;;;;;;;;;;;;;15.45;62.80;100927.63;5354023;32;34193;-86
2022/11/08 14:27:55;;;;;;;;;;;;;;;15.42;62.34;100917.19;5351581;32;34278;-77
2022/11/08 14:30:58;;;;;;;;;;;;;;;14.94;64.13;100925.81;5340195;32;34335;-82
2022/11/08 14:34:01;;;;;;;;;;;;;;;14.89;64.51;100915.44;5346981;32;35515;-67
2022/11/08 14:37:04;;;;;;;;;;;;;;;14.97;64.34;100915.06;5344244;32;35069;-73
2022/11/08 14:40:15;;;;;;;;;;;;;;;15.00;64.12;100914.87;5351258;32;44513;-69
2022/11/08 14:43:17;;;;;;;;;;;;;;;14.55;65.18;100916.16;5343894;32;35966;-68
2022/11/08 14:46:23;;;;;;;;;;;;;;;14.65;65.32;100923.69;5349461;32;35437;-76
2022/11/08 14:49:34;;;;;;;;;;;;;;;14.48;65.89;100916.53;5337388;32;35604;-75
2022/11/08 14:52:36;;;;;;;;;;;;;;;13.82;68.72;100930.06;5332324;32;38012;-70
2022/11/08 14:55:38;;;;;;;;;;;;;;;14.23;66.72;100919.41;5350616;32;34376;-76
2022/11/08 14:58:40;;;;;;;;;;;;;;;14.52;65.10;100921.63;5344258;32;35890;-73
2022/11/08 15:01:43;;;;;;;;;;;;;;;14.42;65.44;100924.72;5357903;32;34787;-75
2022/11/08 15:04:45;;;;;;;;;;;;;;;13.92;67.25;100917.31;5338753;32;34327;-77
2022/11/08 15:07:47;;;;;;;;;;;;;;;14.03;66.47;100929.09;5341756;32;34212;-75
2022/11/08 15:10:53;;;;;;;;;;;;;;;14.08;66.00;100927.12;5333846;32;34858;-76
2022/11/08 15:14:00;;;;;;;;;;;;;;;13.92;65.97;100934.03;5342030;32;34339;-77
2022/11/08 15:17:02;;;;;;;;;;;;;;;13.72;66.76;100929.63;5351753;32;34522;-76
2022/11/08 15:20:17;;;;;;;;;;;;;;;13.45;67.68;100936.94;5321175;32;34368;-75
2022/11/08 15:23:23;;;;;;;;;;;;;;;13.31;68.58;100946.34;5336934;32;35732;-76
2022/11/08 15:26:32;;;;;;;;;;;;;;;13.05;69.42;100944.75;5326254;32;35500;-67
2022/11/08 15:29:52;;;;;;;;;;;;;;;13.17;69.51;100944.25;5345526;32;34257;-75
2022/11/08 15:32:54;;;;;;;;;;;;;;;12.92;70.12;100944.38;5352076;32;34343;-77
2022/11/08 15:35:57;;;;;;;;;;;;;;;12.62;71.65;100954.34;5342341;32;34896;-77
2022/11/08 15:38:59;;;;;;;;;;;;;;;12.72;71.87;100945.16;5349019;32;34341;-77
2022/11/08 15:42:02;;;;;;;;;;;;;;;13.01;70.43;100947.53;5325461;32;35487;-74
2022/11/08 15:45:13;;;;;;;;;;;;;;;12.61;71.97;100955.28;5352526;32;35539;-76
2022/11/08 15:48:22;;;;;;;;;;;;;;;12.88;70.79;100954.22;5338424;32;44858;-76
2022/11/08 15:51:24;;;;;;;;;;;;;;;12.74;71.14;100959.16;5346455;32;36170;-77
2022/11/08 15:54:29;;;;;;;;;;;;;;;12.80;71.21;100960.69;5358789;32;35464;-75
2022/11/08 15:57:31;;;;;;;;;;;;;;;12.77;70.35;100953.78;5345668;32;34371;-76
2022/11/08 16:00:37;;;;;;;;;;;;;;;12.15;73.48;100959.63;5352127;32;34990;-67
2022/11/08 16:03:39;;;;;;;;;;;;;;;12.04;73.62;100964.41;5333882;32;45263;-76
2022/11/08 16:06:40;;;;;;;;;;;;;;;12.60;72.12;100969.37;5332752;32;34156;-78
2022/11/08 16:09:42;;;;;;;;;;;;;;;11.74;74.34;100961.94;5356152;32;34296;-69
2022/11/08 16:12:45;;;;;;;;;;;;;;;12.00;75.59;100962.84;5346935;32;35519;-67
2022/11/08 16:15:47;;;;;;;;;;;;;;;12.34;73.68;100962.44;5350196;32;35313;-68
2022/11/08 16:18:49;;;;;;;;;;;;;;;12.40;73.46;100970.13;5347290;32;34245;-68